sensor_id;sensor_type;location;lat;lon;timestamp;pressure;altitude;pressure_sealevel;temperature;humidity
64698;BME280;51124;53.394;-6.294;2023-05-24T00:00:31;102182.93;;;25.20;8.39
64698;BME280;51124;53.394;-6.294;2023-05-24T00:02:58;102185.52;;;24.56;8.66
64698;BME280;51124;53.394;-6.294;2023-05-24T00:05:26;102183.82;;;24.71;8.71
64698;BME280;51124;53.394;-6.294;2023-05-24T00:07:53;102189.59;;;25.40;8.70
64698;BME280;51124;53.394;-6.294;2023-05-24T00:10:21;102186.35;;;25.78;8.75
64698;BME280;51124;53.394;-6.294;2023-05-24T00:12:48;102186.93;;;25.07;8.76
64698;BME280;51124;53.394;-6.294;2023-05-24T00:15:16;102187.85;;;24.98;8.82
64698;BME280;51124;53.394;-6.294;2023-05-24T00:17:43;102180.88;;;25.24;8.94
64698;BME280;51124;53.394;-6.294;2023-05-24T00:20:11;102177.90;;;24.86;8.92
64698;BME280;51124;53.394;-6.294;2023-05-24T00:22:39;102176.83;;;25.97;8.83
64698;BME280;51124;53.394;-6.294;2023-05-24T00:25:07;102177.71;;;24.49;8.96
64698;BME280;51124;53.394;-6.294;2023-05-24T00:27:35;102178.84;;;25.54;8.87
64698;BME280;51124;53.394;-6.294;2023-05-24T00:30:02;102176.38;;;25.02;9.04
64698;BME280;51124;53.394;-6.294;2023-05-24T00:32:30;102174.85;;;24.55;8.98
64698;BME280;51124;53.394;-6.294;2023-05-24T00:34:57;102178.28;;;24.31;9.09
64698;BME280;51124;53.394;-6.294;2023-05-24T00:37:25;102173.32;;;25.21;8.97
64698;BME280;51124;53.394;-6.294;2023-05-24T00:39:52;102172.28;;;24.67;9.07
64698;BME280;51124;53.394;-6.294;2023-05-24T00:42:19;102170.41;;;23.57;9.20
64698;BME280;51124;53.394;-6.294;2023-05-24T00:44:47;102163.12;;;23.10;8.68
64698;BME280;51124;53.394;-6.294;2023-05-24T00:47:14;102163.13;;;22.45;8.52
64698;BME280;51124;53.394;-6.294;2023-05-24T00:49:42;102161.28;;;22.25;8.24
64698;BME280;51124;53.394;-6.294;2023-05-24T00:52:10;102165.45;;;22.41;7.96
64698;BME280;51124;53.394;-6.294;2023-05-24T00:54:37;102165.21;;;22.73;7.87
64698;BME280;51124;53.394;-6.294;2023-05-24T00:57:05;102159.55;;;21.27;8.02
64698;BME280;51124;53.394;-6.294;2023-05-24T00:59:33;102158.98;;;22.74;7.58
64698;BME280;51124;53.394;-6.294;2023-05-24T01:02:00;102153.59;;;22.31;7.70
64698;BME280;51124;53.394;-6.294;2023-05-24T01:04:27;102156.35;;;22.83;7.37
64698;BME280;51124;53.394;-6.294;2023-05-24T01:07:10;102158.21;;;22.99;7.42
64698;BME280;51124;53.394;-6.294;2023-05-24T01:09:28;102156.70;;;23.06;7.35
64698;BME280;51124;53.394;-6.294;2023-05-24T01:11:58;102149.79;;;23.27;7.40
64698;BME280;51124;53.394;-6.294;2023-05-24T01:14:25;102147.84;;;22.83;7.32
64698;BME280;51124;53.394;-6.294;2023-05-24T01:16:49;102146.12;;;22.60;7.25
64698;BME280;51124;53.394;-6.294;2023-05-24T01:19:48;102147.08;;;21.92;7.34
64698;BME280;51124;53.394;-6.294;2023-05-24T01:21:53;102149.20;;;22.24;7.41
64698;BME280;51124;53.394;-6.294;2023-05-24T01:24:23;102144.11;;;22.67;7.14
64698;BME280;51124;53.394;-6.294;2023-05-24T01:29:14;102144.94;;;22.83;7.04
64698;BME280;51124;53.394;-6.294;2023-05-24T01:31:42;102142.06;;;22.53;7.18
64698;BME280;51124;53.394;-6.294;2023-05-24T01:34:10;102143.78;;;22.74;7.01
64698;BME280;51124;53.394;-6.294;2023-05-24T01:36:37;102138.80;;;22.70;7.02
64698;BME280;51124;53.394;-6.294;2023-05-24T01:39:05;102142.44;;;22.40;7.05
64698;BME280;51124;53.394;-6.294;2023-05-24T01:41:38;102139.20;;;21.85;7.09
64698;BME280;51124;53.394;-6.294;2023-05-24T01:44:14;102133.78;;;22.33;7.10
64698;BME280;51124;53.394;-6.294;2023-05-24T01:46:37;102132.87;;;22.35;7.09
64698;BME280;51124;53.394;-6.294;2023-05-24T01:49:12;102135.89;;;22.25;7.04
64698;BME280;51124;53.394;-6.294;2023-05-24T01:51:40;102137.90;;;21.50;7.34
64698;BME280;51124;53.394;-6.294;2023-05-24T01:54:00;102138.91;;;21.88;7.21
64698;BME280;51124;53.394;-6.294;2023-05-24T01:56:28;102131.16;;;22.07;7.12
64698;BME280;51124;53.394;-6.294;2023-05-24T01:58:58;102128.36;;;22.66;7.12
64698;BME280;51124;53.394;-6.294;2023-05-24T02:01:26;102133.17;;;22.24;7.06
64698;BME280;51124;53.394;-6.294;2023-05-24T02:03:54;102134.08;;;22.36;7.14
64698;BME280;51124;53.394;-6.294;2023-05-24T02:06:21;102145.65;;;22.12;7.32
64698;BME280;51124;53.394;-6.294;2023-05-24T02:08:48;102144.38;;;21.71;7.22
64698;BME280;51124;53.394;-6.294;2023-05-24T02:11:16;102140.10;;;22.00;7.14
64698;BME280;51124;53.394;-6.294;2023-05-24T02:13:43;102144.97;;;22.64;7.15
64698;BME280;51124;53.394;-6.294;2023-05-24T02:16:10;102142.61;;;22.71;7.10
64698;BME280;51124;53.394;-6.294;2023-05-24T02:18:37;102142.40;;;22.95;7.14
64698;BME280;51124;53.394;-6.294;2023-05-24T02:21:05;102139.47;;;22.20;7.24
64698;BME280;51124;53.394;-6.294;2023-05-24T02:23:32;102143.65;;;21.58;7.20
64698;BME280;51124;53.394;-6.294;2023-05-24T02:25:59;102145.65;;;21.85;7.31
64698;BME280;51124;53.394;-6.294;2023-05-24T02:28:26;102142.30;;;21.77;7.19
64698;BME280;51124;53.394;-6.294;2023-05-24T02:30:54;102143.74;;;23.65;6.99
64698;BME280;51124;53.394;-6.294;2023-05-24T02:33:21;102139.55;;;22.27;7.23
64698;BME280;51124;53.394;-6.294;2023-05-24T02:35:48;102135.95;;;22.46;7.31
64698;BME280;51124;53.394;-6.294;2023-05-24T02:38:15;102136.75;;;22.02;7.20
64698;BME280;51124;53.394;-6.294;2023-05-24T02:40:42;102142.49;;;21.54;7.12
64698;BME280;51124;53.394;-6.294;2023-05-24T02:43:10;102145.75;;;21.90;7.08
64698;BME280;51124;53.394;-6.294;2023-05-24T02:45:37;102152.60;;;22.76;7.07
64698;BME280;51124;53.394;-6.294;2023-05-24T02:48:04;102159.49;;;24.14;7.26
64698;BME280;51124;53.394;-6.294;2023-05-24T02:50:32;102160.55;;;24.07;7.70
64698;BME280;51124;53.394;-6.294;2023-05-24T02:52:59;102162.03;;;22.77;8.01
64698;BME280;51124;53.394;-6.294;2023-05-24T02:55:26;102155.42;;;20.98;8.10
64698;BME280;51124;53.394;-6.294;2023-05-24T02:57:54;102150.36;;;24.84;8.06
64698;BME280;51124;53.394;-6.294;2023-05-24T03:00:22;102152.10;;;24.39;8.55
64698;BME280;51124;53.394;-6.294;2023-05-24T03:02:50;102153.86;;;23.88;8.80
64698;BME280;51124;53.394;-6.294;2023-05-24T03:05:17;102161.28;;;23.73;9.07
64698;BME280;51124;53.394;-6.294;2023-05-24T03:07:44;102166.14;;;24.17;9.16
64698;BME280;51124;53.394;-6.294;2023-05-24T03:10:12;102163.19;;;22.70;9.66
64698;BME280;51124;53.394;-6.294;2023-05-24T03:12:41;102163.55;;;22.03;9.32
64698;BME280;51124;53.394;-6.294;2023-05-24T03:15:09;102170.86;;;23.13;9.34
64698;BME280;51124;53.394;-6.294;2023-05-24T03:17:37;102171.52;;;23.57;9.35
64698;BME280;51124;53.394;-6.294;2023-05-24T03:20:05;102174.53;;;24.06;9.39
64698;BME280;51124;53.394;-6.294;2023-05-24T03:22:33;102169.13;;;24.06;9.36
64698;BME280;51124;53.394;-6.294;2023-05-24T03:25:00;102161.94;;;22.72;9.66
64698;BME280;51124;53.394;-6.294;2023-05-24T03:27:28;102163.76;;;23.57;9.55
64698;BME280;51124;53.394;-6.294;2023-05-24T03:29:55;102167.97;;;22.91;9.65
64698;BME280;51124;53.394;-6.294;2023-05-24T03:32:23;102168.47;;;23.88;9.63
64698;BME280;51124;53.394;-6.294;2023-05-24T03:34:50;102161.41;;;23.05;9.68
64698;BME280;51124;53.394;-6.294;2023-05-24T03:37:17;102155.16;;;23.19;9.80
64698;BME280;51124;53.394;-6.294;2023-05-24T03:39:45;102154.82;;;23.09;9.71
64698;BME280;51124;53.394;-6.294;2023-05-24T03:42:13;102152.57;;;23.15;9.92
64698;BME280;51124;53.394;-6.294;2023-05-24T03:44:40;102158.28;;;22.37;9.87
64698;BME280;51124;53.394;-6.294;2023-05-24T03:47:07;102156.63;;;22.87;9.64
64698;BME280;51124;53.394;-6.294;2023-05-24T03:49:34;102159.99;;;21.67;9.42
64698;BME280;51124;53.394;-6.294;2023-05-24T03:52:02;102152.69;;;20.91;9.15
64698;BME280;51124;53.394;-6.294;2023-05-24T03:54:29;102159.57;;;21.25;8.89
64698;BME280;51124;53.394;-6.294;2023-05-24T03:56:57;102151.58;;;20.94;8.71
64698;BME280;51124;53.394;-6.294;2023-05-24T03:59:24;102154.13;;;22.10;8.41
64698;BME280;51124;53.394;-6.294;2023-05-24T04:01:51;102159.13;;;21.19;8.48
64698;BME280;51124;53.394;-6.294;2023-05-24T04:04:19;102161.95;;;21.53;8.14
64698;BME280;51124;53.394;-6.294;2023-05-24T04:06:46;102158.56;;;20.98;8.18
64698;BME280;51124;53.394;-6.294;2023-05-24T04:09:13;102166.05;;;21.05;8.13
64698;BME280;51124;53.394;-6.294;2023-05-24T04:11:41;102166.07;;;20.82;8.07
64698;BME280;51124;53.394;-6.294;2023-05-24T04:14:08;102166.35;;;20.75;7.99
64698;BME280;51124;53.394;-6.294;2023-05-24T04:16:35;102167.85;;;21.06;7.98
64698;BME280;51124;53.394;-6.294;2023-05-24T04:19:02;102171.93;;;20.68;8.03
64698;BME280;51124;53.394;-6.294;2023-05-24T04:21:30;102169.40;;;21.36;7.87
64698;BME280;51124;53.394;-6.294;2023-05-24T04:23:57;102172.68;;;20.81;7.69
64698;BME280;51124;53.394;-6.294;2023-05-24T04:26:24;102169.88;;;20.48;7.85
64698;BME280;51124;53.394;-6.294;2023-05-24T04:28:52;102166.80;;;21.32;7.67
64698;BME280;51124;53.394;-6.294;2023-05-24T04:31:19;102176.96;;;20.48;7.76
64698;BME280;51124;53.394;-6.294;2023-05-24T04:33:47;102179.85;;;20.31;7.69
64698;BME280;51124;53.394;-6.294;2023-05-24T04:36:14;102189.82;;;21.24;7.70
64698;BME280;51124;53.394;-6.294;2023-05-24T04:38:41;102191.13;;;20.93;7.60
64698;BME280;51124;53.394;-6.294;2023-05-24T04:41:09;102192.01;;;20.05;7.83
64698;BME280;51124;53.394;-6.294;2023-05-24T04:43:36;102193.40;;;21.23;7.44
64698;BME280;51124;53.394;-6.294;2023-05-24T04:46:03;102192.88;;;21.37;7.62
64698;BME280;51124;53.394;-6.294;2023-05-24T04:48:31;102191.36;;;20.88;7.58
64698;BME280;51124;53.394;-6.294;2023-05-24T04:50:58;102191.04;;;21.39;7.48
64698;BME280;51124;53.394;-6.294;2023-05-24T04:53:26;102191.59;;;21.22;7.45
64698;BME280;51124;53.394;-6.294;2023-05-24T04:55:53;102196.40;;;21.78;7.41
64698;BME280;51124;53.394;-6.294;2023-05-24T04:58:21;102194.76;;;20.57;7.78
64698;BME280;51124;53.394;-6.294;2023-05-24T05:00:48;102191.55;;;21.57;7.42
64698;BME280;51124;53.394;-6.294;2023-05-24T05:03:15;102200.98;;;21.00;7.56
64698;BME280;51124;53.394;-6.294;2023-05-24T05:05:43;102208.91;;;21.23;7.55
64698;BME280;51124;53.394;-6.294;2023-05-24T05:08:10;102210.10;;;21.15;7.44
64698;BME280;51124;53.394;-6.294;2023-05-24T05:10:38;102205.33;;;21.11;7.50
64698;BME280;51124;53.394;-6.294;2023-05-24T05:13:05;102202.11;;;21.00;7.49
64698;BME280;51124;53.394;-6.294;2023-05-24T05:15:32;102209.43;;;21.49;7.45
64698;BME280;51124;53.394;-6.294;2023-05-24T05:17:59;102199.39;;;21.04;7.60
64698;BME280;51124;53.394;-6.294;2023-05-24T05:20:27;102202.38;;;21.20;7.50
64698;BME280;51124;53.394;-6.294;2023-05-24T05:22:54;102201.07;;;22.40;7.46
64698;BME280;51124;53.394;-6.294;2023-05-24T05:25:21;102204.90;;;21.59;7.47
64698;BME280;51124;53.394;-6.294;2023-05-24T05:27:49;102206.53;;;21.35;7.42
64698;BME280;51124;53.394;-6.294;2023-05-24T05:30:16;102205.89;;;21.91;7.35
64698;BME280;51124;53.394;-6.294;2023-05-24T05:32:43;102205.38;;;20.03;7.80
64698;BME280;51124;53.394;-6.294;2023-05-24T05:35:11;102210.61;;;22.56;7.43
64698;BME280;51124;53.394;-6.294;2023-05-24T05:37:38;102207.31;;;21.21;7.53
64698;BME280;51124;53.394;-6.294;2023-05-24T05:40:06;102205.84;;;20.63;7.74
64698;BME280;51124;53.394;-6.294;2023-05-24T05:42:33;102205.23;;;19.89;7.78
64698;BME280;51124;53.394;-6.294;2023-05-24T05:45:01;102208.94;;;21.15;7.50
64698;BME280;51124;53.394;-6.294;2023-05-24T05:47:28;102207.71;;;21.46;7.28
64698;BME280;51124;53.394;-6.294;2023-05-24T05:49:55;102213.90;;;21.47;7.34
64698;BME280;51124;53.394;-6.294;2023-05-24T05:52:23;102221.63;;;23.44;7.36
64698;BME280;51124;53.394;-6.294;2023-05-24T05:54:50;102220.83;;;23.52;7.79
64698;BME280;51124;53.394;-6.294;2023-05-24T05:57:17;102223.63;;;23.93;8.02
64698;BME280;51124;53.394;-6.294;2023-05-24T05:59:45;102218.73;;;21.84;8.14
64698;BME280;51124;53.394;-6.294;2023-05-24T06:02:12;102222.69;;;23.70;8.06
64698;BME280;51124;53.394;-6.294;2023-05-24T06:04:39;102224.99;;;24.06;8.51
64698;BME280;51124;53.394;-6.294;2023-05-24T06:07:07;102225.36;;;24.39;8.77
64698;BME280;51124;53.394;-6.294;2023-05-24T06:09:34;102232.55;;;23.75;9.12
64698;BME280;51124;53.394;-6.294;2023-05-24T06:12:01;102235.08;;;24.15;9.13
64698;BME280;51124;53.394;-6.294;2023-05-24T08:56:13;102293.96;;;25.82;8.90
64698;BME280;51124;53.394;-6.294;2023-05-24T08:58:42;102288.42;;;24.65;9.18
64698;BME280;51124;53.394;-6.294;2023-05-24T09:01:10;102288.82;;;24.97;9.08
64698;BME280;51124;53.394;-6.294;2023-05-24T09:03:39;102281.72;;;22.65;8.99
64698;BME280;51124;53.394;-6.294;2023-05-24T09:06:08;102283.37;;;21.89;8.30
64698;BME280;51124;53.394;-6.294;2023-05-24T09:08:37;102281.04;;;22.49;7.80
64698;BME280;51124;53.394;-6.294;2023-05-24T09:11:06;102286.18;;;22.69;7.38
64698;BME280;51124;53.394;-6.294;2023-05-24T09:13:34;102281.58;;;23.04;7.36
64698;BME280;51124;53.394;-6.294;2023-05-24T09:16:02;102281.74;;;22.81;7.28
64698;BME280;51124;53.394;-6.294;2023-05-24T09:18:29;102281.84;;;23.21;7.35
64698;BME280;51124;53.394;-6.294;2023-05-24T09:20:57;102282.69;;;22.49;7.34
64698;BME280;51124;53.394;-6.294;2023-05-24T09:23:25;102278.53;;;22.86;7.21
64698;BME280;51124;53.394;-6.294;2023-05-24T09:25:52;102275.44;;;22.68;7.41
64698;BME280;51124;53.394;-6.294;2023-05-24T09:28:20;102278.65;;;22.76;7.19
64698;BME280;51124;53.394;-6.294;2023-05-24T09:30:59;102272.26;;;23.46;6.99
64698;BME280;51124;53.394;-6.294;2023-05-24T09:33:17;102269.07;;;23.68;6.87
64698;BME280;51124;53.394;-6.294;2023-05-24T09:35:44;102273.82;;;23.18;6.95
64698;BME280;51124;53.394;-6.294;2023-05-24T09:38:17;102270.98;;;24.09;6.82
64698;BME280;51124;53.394;-6.294;2023-05-24T09:40:45;102271.25;;;23.35;6.73
64698;BME280;51124;53.394;-6.294;2023-05-24T09:43:12;102270.05;;;25.37;6.37
64698;BME280;51124;53.394;-6.294;2023-05-24T09:45:40;102270.77;;;24.86;6.53
64698;BME280;51124;53.394;-6.294;2023-05-24T09:48:11;102271.72;;;24.45;6.37
64698;BME280;51124;53.394;-6.294;2023-05-24T09:50:39;102266.90;;;24.06;6.42
64698;BME280;51124;53.394;-6.294;2023-05-24T09:53:07;102271.58;;;23.58;6.55
64698;BME280;51124;53.394;-6.294;2023-05-24T09:55:37;102269.71;;;24.58;6.33
64698;BME280;51124;53.394;-6.294;2023-05-24T09:58:06;102276.53;;;25.99;6.79
64698;BME280;51124;53.394;-6.294;2023-05-24T10:00:36;102274.20;;;25.74;7.00
64698;BME280;51124;53.394;-6.294;2023-05-24T10:03:05;102278.48;;;25.50;6.96
64698;BME280;51124;53.394;-6.294;2023-05-24T10:05:34;102276.77;;;27.24;6.68
64698;BME280;51124;53.394;-6.294;2023-05-24T10:08:02;102278.90;;;27.53;7.25
64698;BME280;51124;53.394;-6.294;2023-05-24T10:10:32;102276.93;;;26.01;7.79
64698;BME280;51124;53.394;-6.294;2023-05-24T10:13:00;102283.09;;;26.03;8.26
64698;BME280;51124;53.394;-6.294;2023-05-24T10:15:28;102275.77;;;25.83;8.18
64698;BME280;51124;53.394;-6.294;2023-05-24T10:17:56;102272.72;;;26.42;8.20
64698;BME280;51124;53.394;-6.294;2023-05-24T10:20:24;102270.76;;;26.58;8.26
64698;BME280;51124;53.394;-6.294;2023-05-24T10:22:54;102269.80;;;25.33;8.56
64698;BME280;51124;53.394;-6.294;2023-05-24T10:25:25;102276.28;;;26.21;8.25
64698;BME280;51124;53.394;-6.294;2023-05-24T10:27:57;102269.23;;;26.04;8.57
64698;BME280;51124;53.394;-6.294;2023-05-24T10:30:29;102274.12;;;25.55;8.94
64698;BME280;51124;53.394;-6.294;2023-05-24T10:32:57;102271.92;;;26.30;8.48
64698;BME280;51124;53.394;-6.294;2023-05-24T10:35:25;102271.51;;;25.85;8.72
64698;BME280;51124;53.394;-6.294;2023-05-24T10:37:55;102279.07;;;26.61;8.39
64698;BME280;51124;53.394;-6.294;2023-05-24T10:40:24;102280.27;;;25.94;8.53
64698;BME280;51124;53.394;-6.294;2023-05-24T10:42:51;102279.51;;;26.29;8.50
64698;BME280;51124;53.394;-6.294;2023-05-24T10:45:35;102281.91;;;25.60;8.67
64698;BME280;51124;53.394;-6.294;2023-05-24T10:47:53;102279.04;;;26.08;8.60
64698;BME280;51124;53.394;-6.294;2023-05-24T10:50:21;102272.07;;;26.09;8.49
64698;BME280;51124;53.394;-6.294;2023-05-24T10:52:50;102276.42;;;23.56;8.58
64698;BME280;51124;53.394;-6.294;2023-05-24T10:55:19;102270.35;;;23.69;8.17
64698;BME280;51124;53.394;-6.294;2023-05-24T10:57:47;102264.34;;;23.82;7.89
64698;BME280;51124;53.394;-6.294;2023-05-24T11:00:32;102266.19;;;23.96;7.71
64698;BME280;51124;53.394;-6.294;2023-05-24T11:02:50;102270.68;;;24.63;7.20
64698;BME280;51124;53.394;-6.294;2023-05-24T11:05:17;102265.72;;;25.65;6.86
64698;BME280;51124;53.394;-6.294;2023-05-24T11:07:45;102262.47;;;24.32;6.99
64698;BME280;51124;53.394;-6.294;2023-05-24T11:10:15;102261.00;;;25.39;6.50
64698;BME280;51124;53.394;-6.294;2023-05-24T11:12:43;102258.31;;;24.00;6.73
64698;BME280;51124;53.394;-6.294;2023-05-24T11:15:10;102263.13;;;25.87;6.33
64698;BME280;51124;53.394;-6.294;2023-05-24T11:18:14;102259.36;;;24.89;6.51
64698;BME280;51124;53.394;-6.294;2023-05-24T11:20:11;102264.18;;;25.11;6.41
64698;BME280;51124;53.394;-6.294;2023-05-24T11:22:38;102255.59;;;24.09;6.63
64698;BME280;51124;53.394;-6.294;2023-05-24T11:25:09;102256.73;;;24.65;6.41
64698;BME280;51124;53.394;-6.294;2023-05-24T11:27:42;102253.13;;;25.16;6.37
64698;BME280;51124;53.394;-6.294;2023-05-24T11:30:11;102255.99;;;24.28;6.50
64698;BME280;51124;53.394;-6.294;2023-05-24T11:32:39;102255.90;;;24.46;6.45
64698;BME280;51124;53.394;-6.294;2023-05-24T11:35:06;102248.72;;;25.07;6.27
64698;BME280;51124;53.394;-6.294;2023-05-24T11:37:34;102244.88;;;25.41;6.34
64698;BME280;51124;53.394;-6.294;2023-05-24T11:40:03;102252.84;;;24.32;6.30
64698;BME280;51124;53.394;-6.294;2023-05-24T11:42:31;102256.17;;;24.24;6.26
64698;BME280;51124;53.394;-6.294;2023-05-24T11:44:59;102245.89;;;25.82;5.82
64698;BME280;51124;53.394;-6.294;2023-05-24T11:47:26;102239.73;;;25.78;5.67
64698;BME280;51124;53.394;-6.294;2023-05-24T11:49:54;102243.47;;;25.40;5.75
64698;BME280;51124;53.394;-6.294;2023-05-24T11:52:21;102242.89;;;26.08;5.81
64698;BME280;51124;53.394;-6.294;2023-05-24T11:54:49;102256.21;;;25.31;6.00
64698;BME280;51124;53.394;-6.294;2023-05-24T11:57:17;102251.14;;;26.33;5.62
64698;BME280;51124;53.394;-6.294;2023-05-24T11:59:45;102252.41;;;25.61;5.68
64698;BME280;51124;53.394;-6.294;2023-05-24T12:02:12;102246.98;;;26.02;5.59
64698;BME280;51124;53.394;-6.294;2023-05-24T12:04:39;102243.50;;;26.89;5.53
64698;BME280;51124;53.394;-6.294;2023-05-24T12:07:11;102251.54;;;25.95;5.76
64698;BME280;51124;53.394;-6.294;2023-05-24T12:09:38;102241.29;;;27.04;5.26
64698;BME280;51124;53.394;-6.294;2023-05-24T12:12:06;102239.55;;;26.78;5.18
64698;BME280;51124;53.394;-6.294;2023-05-24T12:14:34;102235.63;;;27.11;5.25
64698;BME280;51124;53.394;-6.294;2023-05-24T12:17:02;102233.42;;;28.39;4.80
64698;BME280;51124;53.394;-6.294;2023-05-24T12:19:31;102228.16;;;29.46;4.44
64698;BME280;51124;53.394;-6.294;2023-05-24T12:21:59;102226.35;;;29.22;4.12
64698;BME280;51124;53.394;-6.294;2023-05-24T12:24:28;102222.02;;;30.27;3.73
64698;BME280;51124;53.394;-6.294;2023-05-24T12:27:00;102220.96;;;32.56;3.22
64698;BME280;51124;53.394;-6.294;2023-05-24T12:29:31;102210.61;;;33.78;2.79
64698;BME280;51124;53.394;-6.294;2023-05-24T12:31:58;102216.29;;;36.26;2.06
64698;BME280;51124;53.394;-6.294;2023-05-24T12:34:26;102216.78;;;35.93;1.76
64698;BME280;51124;53.394;-6.294;2023-05-24T12:36:54;102211.09;;;36.08;1.75
64698;BME280;51124;53.394;-6.294;2023-05-24T12:39:24;102213.03;;;36.84;1.53
64698;BME280;51124;53.394;-6.294;2023-05-24T12:41:52;102207.34;;;39.48;0.83
64698;BME280;51124;53.394;-6.294;2023-05-24T12:44:24;102211.91;;;38.91;0.90
64698;BME280;51124;53.394;-6.294;2023-05-24T12:46:52;102208.30;;;37.34;1.01
64698;BME280;51124;53.394;-6.294;2023-05-24T12:49:20;102201.88;;;37.16;1.04
64698;BME280;51124;53.394;-6.294;2023-05-24T12:51:47;102205.27;;;33.62;1.88
64698;BME280;51124;53.394;-6.294;2023-05-24T12:54:16;102216.16;;;33.50;2.10
64698;BME280;51124;53.394;-6.294;2023-05-24T12:56:44;102206.39;;;36.90;1.28
64698;BME280;51124;53.394;-6.294;2023-05-24T12:59:11;102211.63;;;38.01;1.87
64698;BME280;51124;53.394;-6.294;2023-05-24T13:01:39;102209.97;;;34.01;2.95
64698;BME280;51124;53.394;-6.294;2023-05-24T13:04:06;102211.18;;;34.60;2.84
64698;BME280;51124;53.394;-6.294;2023-05-24T13:06:34;102209.33;;;33.28;2.99
64698;BME280;51124;53.394;-6.294;2023-05-24T13:09:01;102219.22;;;40.62;1.96
64698;BME280;51124;53.394;-6.294;2023-05-24T13:11:28;102215.80;;;38.31;2.51
64698;BME280;51124;53.394;-6.294;2023-05-24T13:13:56;102225.62;;;37.30;3.03
64698;BME280;51124;53.394;-6.294;2023-05-24T13:16:24;102220.86;;;37.51;3.21
64698;BME280;51124;53.394;-6.294;2023-05-24T13:18:51;102222.96;;;38.66;2.69
64698;BME280;51124;53.394;-6.294;2023-05-24T13:21:19;102220.87;;;40.56;2.31
64698;BME280;51124;53.394;-6.294;2023-05-24T13:23:46;102221.38;;;41.43;1.71
64698;BME280;51124;53.394;-6.294;2023-05-24T13:26:14;102218.58;;;42.87;1.40
64698;BME280;51124;53.394;-6.294;2023-05-24T13:28:42;102222.67;;;36.54;3.17
64698;BME280;51124;53.394;-6.294;2023-05-24T13:31:09;102228.82;;;35.21;3.85
64698;BME280;51124;53.394;-6.294;2023-05-24T13:33:37;102231.29;;;33.63;4.60
64698;BME280;51124;53.394;-6.294;2023-05-24T13:36:05;102235.02;;;32.56;4.85
64698;BME280;51124;53.394;-6.294;2023-05-24T13:38:32;102229.31;;;33.37;4.96
64698;BME280;51124;53.394;-6.294;2023-05-24T13:41:00;102237.39;;;32.41;5.23
64698;BME280;51124;53.394;-6.294;2023-05-24T13:43:27;102236.11;;;31.12;5.68
64698;BME280;51124;53.394;-6.294;2023-05-24T13:45:55;102242.95;;;30.42;6.25
64698;BME280;51124;53.394;-6.294;2023-05-24T13:48:23;102241.96;;;30.64;6.28
64698;BME280;51124;53.394;-6.294;2023-05-24T13:50:50;102235.84;;;30.65;6.00
64698;BME280;51124;53.394;-6.294;2023-05-24T13:53:17;102245.79;;;30.07;6.27
64698;BME280;51124;53.394;-6.294;2023-05-24T13:55:45;102245.50;;;31.33;6.08
64698;BME280;51124;53.394;-6.294;2023-05-24T13:58:13;102252.32;;;29.72;6.36
64698;BME280;51124;53.394;-6.294;2023-05-24T14:00:40;102249.04;;;29.03;6.16
64698;BME280;51124;53.394;-6.294;2023-05-24T14:03:08;102244.38;;;28.21;6.02
64698;BME280;51124;53.394;-6.294;2023-05-24T14:05:35;102240.79;;;28.00;5.79
64698;BME280;51124;53.394;-6.294;2023-05-24T14:08:02;102244.35;;;28.39;5.77
64698;BME280;51124;53.394;-6.294;2023-05-24T14:10:35;102239.77;;;27.89;5.92
64698;BME280;51124;53.394;-6.294;2023-05-24T14:13:02;102237.61;;;27.83;5.75
64698;BME280;51124;53.394;-6.294;2023-05-24T14:15:30;102237.74;;;28.16;5.37
64698;BME280;51124;53.394;-6.294;2023-05-24T14:17:59;102233.78;;;27.75;5.50
64698;BME280;51124;53.394;-6.294;2023-05-24T14:20:26;102239.45;;;28.63;5.22
64698;BME280;51124;53.394;-6.294;2023-05-24T14:22:54;102237.65;;;29.19;5.28
64698;BME280;51124;53.394;-6.294;2023-05-24T14:25:21;102236.93;;;28.29;5.31
64698;BME280;51124;53.394;-6.294;2023-05-24T14:27:48;102236.70;;;27.68;5.36
64698;BME280;51124;53.394;-6.294;2023-05-24T14:30:16;102239.05;;;28.01;5.37
64698;BME280;51124;53.394;-6.294;2023-05-24T14:32:43;102237.70;;;27.86;5.33
64698;BME280;51124;53.394;-6.294;2023-05-24T14:35:10;102242.76;;;28.76;5.34
64698;BME280;51124;53.394;-6.294;2023-05-24T14:37:38;102248.96;;;26.77;5.44
64698;BME280;51124;53.394;-6.294;2023-05-24T14:40:07;102249.53;;;29.51;5.00
64698;BME280;51124;53.394;-6.294;2023-05-24T14:42:34;102252.28;;;28.71;4.91
64698;BME280;51124;53.394;-6.294;2023-05-24T14:45:02;102258.41;;;28.48;4.97
64698;BME280;51124;53.394;-6.294;2023-05-24T14:47:29;102252.13;;;29.50;4.83
64698;BME280;51124;53.394;-6.294;2023-05-24T14:49:57;102255.46;;;29.14;4.73
64698;BME280;51124;53.394;-6.294;2023-05-24T14:52:24;102257.34;;;27.69;5.19
64698;BME280;51124;53.394;-6.294;2023-05-24T14:54:52;102257.59;;;27.76;5.19
64698;BME280;51124;53.394;-6.294;2023-05-24T14:57:19;102263.97;;;27.10;5.16
64698;BME280;51124;53.394;-6.294;2023-05-24T14:59:46;102251.80;;;27.26;5.18
64698;BME280;51124;53.394;-6.294;2023-05-24T15:02:14;102260.50;;;26.83;5.14
64698;BME280;51124;53.394;-6.294;2023-05-24T15:04:41;102252.25;;;27.51;4.99
64698;BME280;51124;53.394;-6.294;2023-05-24T15:07:08;102262.99;;;27.81;5.06
64698;BME280;51124;53.394;-6.294;2023-05-24T15:09:36;102257.14;;;27.70;5.18
64698;BME280;51124;53.394;-6.294;2023-05-24T15:12:03;102265.90;;;27.10;5.32
64698;BME280;51124;53.394;-6.294;2023-05-24T15:14:30;102257.97;;;27.33;5.47
64698;BME280;51124;53.394;-6.294;2023-05-24T15:16:58;102255.58;;;28.48;5.13
64698;BME280;51124;53.394;-6.294;2023-05-24T15:19:25;102256.88;;;28.28;5.06
64698;BME280;51124;53.394;-6.294;2023-05-24T15:21:53;102255.82;;;29.26;4.84
64698;BME280;51124;53.394;-6.294;2023-05-24T15:24:20;102255.90;;;28.94;4.97
64698;BME280;51124;53.394;-6.294;2023-05-24T15:26:47;102258.68;;;29.22;4.94
64698;BME280;51124;53.394;-6.294;2023-05-24T15:29:16;102261.66;;;28.86;5.06
64698;BME280;51124;53.394;-6.294;2023-05-24T15:31:43;102263.73;;;28.26;5.18
64698;BME280;51124;53.394;-6.294;2023-05-24T15:34:10;102263.13;;;27.82;5.31
64698;BME280;51124;53.394;-6.294;2023-05-24T15:36:38;102269.74;;;28.15;5.41